createdAt,value
2022-09-23T00:00:32.465Z,11.222222222222285
2022-09-23T00:01:32.480Z,11.222222222222285
2022-09-23T00:02:32.556Z,11.222222222222285
2022-09-23T00:03:32.467Z,11.277777777777828
2022-09-23T00:04:32.476Z,11.277777777777828
2022-09-23T00:05:32.475Z,11.277777777777828
2022-09-23T00:06:32.485Z,11.277777777777828
2022-09-23T00:07:32.540Z,11.277777777777828
2022-09-23T00:08:32.445Z,11.277777777777828
2022-09-23T00:09:32.445Z,11.277777777777828
2022-09-23T00:10:32.510Z,11.222222222222285
2022-09-23T00:11:32.514Z,11.222222222222285
2022-09-23T00:12:32.459Z,11.222222222222285
2022-09-23T00:13:32.447Z,11.222222222222285
2022-09-23T00:14:32.456Z,11.222222222222285
2022-09-23T00:15:32.444Z,11.222222222222285
2022-09-23T00:16:32.535Z,11.222222222222285
2022-09-23T00:17:32.473Z,11.222222222222285
2022-09-23T00:18:32.469Z,11.222222222222285
2022-09-23T00:19:32.446Z,11.222222222222285
2022-09-23T00:20:32.456Z,11.222222222222285
2022-09-23T00:21:32.423Z,11.222222222222285
2022-09-23T00:22:32.460Z,11.222222222222285
2022-09-23T00:23:32.563Z,11.222222222222285
2022-09-23T00:24:32.479Z,11.222222222222285
2022-09-23T00:25:32.431Z,11.222222222222285
2022-09-23T00:26:32.459Z,11.222222222222285
2022-09-23T00:27:32.505Z,11.222222222222285
2022-09-23T00:28:32.469Z,11.222222222222285
2022-09-23T00:29:32.446Z,11.222222222222285
2022-09-23T00:30:32.487Z,11.222222222222285
2022-09-23T00:31:32.454Z,11.222222222222285
2022-09-23T00:32:32.435Z,11.222222222222285
2022-09-23T00:33:32.472Z,11.222222222222285
2022-09-23T00:34:32.515Z,11.222222222222285
2022-09-23T00:35:32.520Z,11.222222222222285
2022-09-23T00:36:32.453Z,11.222222222222285
2022-09-23T00:37:32.447Z,11.222222222222285
2022-09-23T00:38:32.422Z,11.222222222222285
2022-09-23T00:39:32.434Z,11.222222222222285
2022-09-23T00:40:32.453Z,11.222222222222285
2022-09-23T00:41:32.497Z,11.222222222222285
2022-09-23T00:42:32.448Z,11.222222222222285
2022-09-23T00:43:32.486Z,11.222222222222285
2022-09-23T00:44:32.528Z,11.222222222222285
2022-09-23T00:45:32.455Z,11.111111111111143
2022-09-23T00:46:32.551Z,11.111111111111143
2022-09-23T00:47:32.465Z,11.111111111111143
2022-09-23T00:48:32.636Z,11.111111111111143
2022-09-23T00:49:32.461Z,11.111111111111143
2022-09-23T00:50:32.450Z,11.111111111111143
2022-09-23T00:51:32.471Z,11.111111111111143
2022-09-23T00:52:32.510Z,11.111111111111143
2022-09-23T00:53:32.468Z,11.111111111111143
2022-09-23T00:54:32.617Z,11.111111111111143
2022-09-23T00:55:32.478Z,11.111111111111143
2022-09-23T00:56:32.412Z,11.111111111111143
2022-09-23T00:57:32.432Z,11.111111111111143
2022-09-23T00:58:32.431Z,11.111111111111143
2022-09-23T00:59:32.701Z,11.111111111111143
2022-09-23T01:00:32.407Z,11.111111111111143
2022-09-23T01:01:32.498Z,11.111111111111143
2022-09-23T01:02:32.462Z,11.111111111111143
2022-09-23T01:03:32.438Z,11.111111111111143
2022-09-23T01:04:32.412Z,11.111111111111143
2022-09-23T01:05:32.470Z,11.111111111111143
2022-09-23T01:06:32.428Z,11.111111111111143
2022-09-23T01:07:32.471Z,11.111111111111143
2022-09-23T01:08:32.380Z,11.111111111111143
2022-09-23T01:09:32.445Z,11.111111111111143
2022-09-23T01:10:32.460Z,11.111111111111143
2022-09-23T01:11:32.466Z,11.111111111111143
2022-09-23T01:12:32.342Z,11.111111111111143
2022-09-23T01:13:32.450Z,11.111111111111143
2022-09-23T01:14:32.445Z,11.111111111111143
2022-09-23T01:15:32.464Z,11.111111111111143
2022-09-23T01:16:32.438Z,11.111111111111143
2022-09-23T01:17:32.453Z,11.111111111111143
2022-09-23T01:18:32.424Z,11.111111111111143
2022-09-23T01:19:32.453Z,11.111111111111143
2022-09-23T01:20:32.362Z,11.111111111111143
2022-09-23T01:21:32.457Z,11.111111111111143
2022-09-23T01:22:32.454Z,11.111111111111143
2022-09-23T01:23:32.467Z,11.111111111111143
2022-09-23T01:24:32.361Z,11.111111111111143
2022-09-23T01:25:32.460Z,11.111111111111143
2022-09-23T01:26:32.450Z,11.111111111111143
2022-09-23T01:27:32.473Z,11.111111111111143
2022-09-23T01:28:32.367Z,11.111111111111143
2022-09-23T01:29:32.436Z,11.111111111111143
2022-09-23T01:30:32.496Z,11.111111111111143
2022-09-23T01:31:32.470Z,11.111111111111143
2022-09-23T01:32:32.349Z,11.111111111111143
2022-09-23T01:33:32.453Z,11.111111111111143
2022-09-23T01:34:32.450Z,11.111111111111143
2022-09-23T01:35:32.488Z,11.111111111111143
2022-09-23T01:36:32.348Z,11.111111111111143
2022-09-23T01:37:32.470Z,11.111111111111143
2022-09-23T01:38:32.477Z,11.111111111111143
2022-09-23T01:39:32.466Z,11.111111111111143
2022-09-23T01:40:32.589Z,11.111111111111143
2022-09-23T01:41:32.565Z,11.111111111111143
2022-09-23T01:42:32.607Z,11.111111111111143
2022-09-23T01:43:32.562Z,11.111111111111143
2022-09-23T01:44:32.394Z,11.111111111111143
2022-09-23T01:45:32.550Z,11.111111111111143
2022-09-23T01:46:32.600Z,11.111111111111143
2022-09-23T01:47:32.633Z,11.111111111111143
2022-09-23T01:48:32.500Z,11.111111111111143
2022-09-23T01:49:32.498Z,11.111111111111143
2022-09-23T01:50:32.646Z,11.111111111111143
2022-09-23T01:51:32.467Z,11.111111111111143
2022-09-23T01:52:32.333Z,11.111111111111143
2022-09-23T01:53:32.439Z,11.111111111111143
2022-09-23T01:54:32.442Z,11.111111111111143
2022-09-23T01:55:32.459Z,11.111111111111143
2022-09-23T01:56:32.261Z,11.111111111111143
2022-09-23T01:57:32.439Z,11.111111111111143
2022-09-23T01:58:32.467Z,11.111111111111143
2022-09-23T01:59:32.423Z,11.111111111111143
2022-09-23T02:00:32.322Z,11.111111111111143
2022-09-23T02:01:32.481Z,11.111111111111143
2022-09-23T02:02:32.504Z,11.111111111111143
2022-09-23T02:03:32.460Z,11.111111111111143
2022-09-23T02:04:32.333Z,11.111111111111143
2022-09-23T02:05:32.447Z,11.111111111111143
2022-09-23T02:06:32.467Z,11.111111111111143
2022-09-23T02:07:32.448Z,11.000000000000057
2022-09-23T02:08:32.276Z,11.000000000000057
2022-09-23T02:09:32.431Z,11.000000000000057
2022-09-23T02:10:32.448Z,11.000000000000057
2022-09-23T02:11:32.437Z,11.000000000000057
2022-09-23T02:12:32.285Z,11.000000000000057
2022-09-23T02:13:32.423Z,11.000000000000057
2022-09-23T02:14:32.479Z,11.000000000000057
2022-09-23T02:15:32.444Z,11.000000000000057
2022-09-23T02:16:32.298Z,11.000000000000057
2022-09-23T02:17:32.440Z,11.000000000000057
2022-09-23T02:18:32.441Z,11.000000000000057
2022-09-23T02:19:32.448Z,11.000000000000057
2022-09-23T02:20:32.291Z,11.000000000000057
2022-09-23T02:21:32.443Z,11.000000000000057
2022-09-23T02:22:32.432Z,11.000000000000057
2022-09-23T02:23:32.467Z,11.000000000000057
2022-09-23T02:24:32.288Z,11.000000000000057
2022-09-23T02:25:32.440Z,11.000000000000057
2022-09-23T02:26:32.447Z,10.888888888888971
2022-09-23T02:27:32.424Z,10.888888888888971
2022-09-23T02:28:32.215Z,10.888888888888971
2022-09-23T02:29:32.442Z,10.888888888888971
2022-09-23T02:30:32.456Z,10.888888888888971
2022-09-23T02:31:32.511Z,10.888888888888971
2022-09-23T02:32:32.258Z,10.888888888888971
2022-09-23T02:33:32.447Z,10.888888888888971
2022-09-23T02:34:32.423Z,10.888888888888971
2022-09-23T02:35:32.437Z,10.888888888888971
2022-09-23T02:36:32.238Z,10.888888888888971
2022-09-23T02:37:32.839Z,10.888888888888971
2022-09-23T02:38:32.437Z,10.888888888888971
2022-09-23T02:39:32.451Z,10.777777777777828
2022-09-23T02:40:32.291Z,10.777777777777828
2022-09-23T02:41:32.438Z,10.777777777777828
2022-09-23T02:42:32.436Z,10.777777777777828
2022-09-23T02:43:32.441Z,10.777777777777828
2022-09-23T02:44:32.272Z,10.777777777777828
2022-09-23T02:45:32.576Z,10.777777777777828
2022-09-23T02:46:32.446Z,10.777777777777828
2022-09-23T02:47:32.438Z,10.777777777777828
2022-09-23T02:48:32.226Z,10.777777777777828
2022-09-23T02:49:32.433Z,10.777777777777828
2022-09-23T02:50:32.475Z,10.777777777777828
2022-09-23T02:51:32.412Z,10.777777777777828
2022-09-23T02:52:32.268Z,10.777777777777828
2022-09-23T02:53:32.439Z,10.722222222222285
2022-09-23T02:54:32.450Z,10.722222222222285
2022-09-23T02:55:32.470Z,10.722222222222285
2022-09-23T02:56:32.221Z,10.722222222222285
2022-09-23T02:57:32.415Z,10.722222222222285
2022-09-23T02:58:32.454Z,10.722222222222285
2022-09-23T02:59:32.426Z,10.722222222222285
2022-09-23T03:00:32.181Z,10.722222222222285
2022-09-23T03:01:32.656Z,10.722222222222285
2022-09-23T03:02:32.544Z,10.722222222222285
2022-09-23T03:03:32.424Z,10.722222222222285
2022-09-23T03:04:32.193Z,10.722222222222285
2022-09-23T03:05:32.448Z,10.722222222222285
2022-09-23T03:06:32.454Z,10.722222222222285
2022-09-23T03:07:32.406Z,10.722222222222285
2022-09-23T03:08:32.234Z,10.722222222222285
2022-09-23T03:09:32.417Z,10.722222222222285
2022-09-23T03:10:32.433Z,10.722222222222285
2022-09-23T03:11:32.581Z,10.722222222222285
2022-09-23T03:12:32.347Z,10.722222222222285
2022-09-23T03:13:32.584Z,10.722222222222285
2022-09-23T03:14:32.602Z,10.722222222222285
2022-09-23T03:15:32.532Z,10.722222222222285
2022-09-23T03:16:32.403Z,10.722222222222285
2022-09-23T03:17:32.536Z,10.722222222222285
2022-09-23T03:18:32.563Z,10.722222222222285
2022-09-23T03:19:32.532Z,10.722222222222285
2022-09-23T03:20:32.306Z,10.722222222222285
2022-09-23T03:21:32.565Z,10.722222222222285
2022-09-23T03:22:32.583Z,10.722222222222285
2022-09-23T03:23:32.443Z,10.722222222222285
2022-09-23T03:24:32.310Z,10.722222222222285
2022-09-23T03:25:32.598Z,10.722222222222285
2022-09-23T03:26:32.524Z,10.722222222222285
2022-09-23T03:27:32.560Z,10.722222222222285
2022-09-23T03:28:32.244Z,10.722222222222285
2022-09-23T03:29:32.592Z,10.777777777777828
2022-09-23T03:30:32.560Z,10.777777777777828
2022-09-23T03:31:32.485Z,10.777777777777828
2022-09-23T03:32:32.259Z,10.777777777777828
2022-09-23T03:33:32.441Z,10.777777777777828
2022-09-23T03:34:32.442Z,10.777777777777828
2022-09-23T03:35:32.465Z,10.777777777777828
2022-09-23T03:36:32.148Z,10.777777777777828
2022-09-23T03:37:32.398Z,10.777777777777828
2022-09-23T03:38:32.430Z,10.777777777777828
2022-09-23T03:39:32.556Z,10.777777777777828
2022-09-23T03:40:32.263Z,10.888888888888971
2022-09-23T03:41:32.548Z,10.888888888888971
2022-09-23T03:42:32.639Z,10.888888888888971
2022-09-23T03:43:37.993Z,10.888888888888971
2022-09-23T03:44:32.156Z,10.888888888888971
2022-09-23T03:45:32.527Z,10.888888888888971
2022-09-23T03:46:32.425Z,10.888888888888971
2022-09-23T03:47:32.403Z,10.888888888888971
2022-09-23T03:48:32.179Z,10.888888888888971
2022-09-23T03:49:32.434Z,10.888888888888971
2022-09-23T03:50:32.435Z,10.888888888888971
2022-09-23T03:51:32.449Z,10.888888888888971
2022-09-23T03:52:32.150Z,10.888888888888971
2022-09-23T03:53:32.552Z,10.888888888888971
2022-09-23T03:54:32.438Z,10.888888888888971
2022-09-23T03:55:32.585Z,10.888888888888971
2022-09-23T03:56:32.139Z,10.888888888888971
2022-09-23T03:57:32.423Z,10.888888888888971
2022-09-23T03:58:32.473Z,10.888888888888971
2022-09-23T03:59:32.452Z,10.888888888888971
2022-09-23T04:00:32.240Z,10.888888888888971
2022-09-23T04:01:32.559Z,10.777777777777828
2022-09-23T04:02:32.491Z,10.777777777777828
2022-09-23T04:03:32.455Z,10.777777777777828
2022-09-23T04:04:32.106Z,10.777777777777828
2022-09-23T04:05:32.497Z,10.777777777777828
2022-09-23T04:06:32.457Z,10.777777777777828
2022-09-23T04:07:32.394Z,10.777777777777828
2022-09-23T04:08:32.102Z,10.777777777777828
2022-09-23T04:09:32.408Z,10.722222222222285
2022-09-23T04:10:32.440Z,10.722222222222285
2022-09-23T04:11:32.418Z,10.722222222222285
2022-09-23T04:12:32.109Z,10.722222222222285
2022-09-23T04:13:32.436Z,10.722222222222285
2022-09-23T04:14:32.440Z,10.722222222222285
2022-09-23T04:15:32.544Z,10.611111111111143
2022-09-23T04:16:32.185Z,10.611111111111143
2022-09-23T04:17:32.419Z,10.611111111111143
2022-09-23T04:18:32.440Z,10.611111111111143
2022-09-23T04:19:32.436Z,10.611111111111143
2022-09-23T04:20:32.117Z,10.500000000000057
2022-09-23T04:21:32.434Z,10.500000000000057
2022-09-23T04:22:32.447Z,10.500000000000057
2022-09-23T04:23:32.397Z,10.500000000000057
2022-09-23T04:24:32.144Z,10.500000000000057
2022-09-23T04:25:32.411Z,10.500000000000057
2022-09-23T04:26:32.408Z,10.500000000000057
2022-09-23T04:27:37.400Z,10.500000000000057
2022-09-23T04:28:32.103Z,10.500000000000057
2022-09-23T04:29:32.431Z,10.500000000000057
2022-09-23T04:30:32.425Z,10.500000000000057
2022-09-23T04:31:32.481Z,10.500000000000057
2022-09-23T04:32:32.113Z,10.500000000000057
2022-09-23T04:33:32.425Z,10.500000000000057
2022-09-23T04:34:32.445Z,10.500000000000057
2022-09-23T04:35:34.051Z,10.500000000000057
2022-09-23T04:36:32.067Z,10.388888888888914
2022-09-23T04:37:32.429Z,10.388888888888914
2022-09-23T04:38:32.435Z,10.388888888888914
2022-09-23T04:39:32.444Z,10.388888888888914
2022-09-23T04:40:32.116Z,10.388888888888914
2022-09-23T04:41:32.453Z,10.277777777777828
2022-09-23T04:42:32.423Z,10.277777777777828
2022-09-23T04:43:32.394Z,10.277777777777828
2022-09-23T04:44:32.110Z,10.277777777777828
2022-09-23T04:45:32.414Z,10.277777777777828
2022-09-23T04:46:32.500Z,10.277777777777828
2022-09-23T04:47:32.429Z,10.277777777777828
2022-09-23T04:48:32.075Z,10.277777777777828
2022-09-23T04:49:32.439Z,10.277777777777828
2022-09-23T04:50:32.405Z,10.277777777777828
2022-09-23T04:51:32.438Z,10.277777777777828
2022-09-23T04:52:32.083Z,10.277777777777828
2022-09-23T04:53:32.420Z,10.277777777777828
2022-09-23T04:54:32.432Z,10.277777777777828
2022-09-23T04:55:32.411Z,10.277777777777828
2022-09-23T04:56:32.050Z,10.277777777777828
2022-09-23T04:57:32.420Z,10.277777777777828
2022-09-23T04:58:32.434Z,10.222222222222229
2022-09-23T04:59:32.403Z,10.277777777777828
2022-09-23T05:00:32.137Z,10.277777777777828
2022-09-23T05:01:32.733Z,10.277777777777828
2022-09-23T05:02:32.485Z,10.277777777777828
2022-09-23T05:03:32.419Z,10.277777777777828
2022-09-23T05:04:32.104Z,10.277777777777828
2022-09-23T05:05:32.438Z,10.277777777777828
2022-09-23T05:06:32.417Z,10.277777777777828
2022-09-23T05:07:32.443Z,10.277777777777828
2022-09-23T05:08:32.021Z,10.277777777777828
2022-09-23T05:09:32.442Z,10.277777777777828
2022-09-23T05:10:32.441Z,10.277777777777828
2022-09-23T05:11:32.435Z,10.277777777777828
2022-09-23T05:12:32.036Z,10.277777777777828
2022-09-23T05:13:32.524Z,10.388888888888914
2022-09-23T05:14:32.425Z,10.388888888888914
2022-09-23T05:15:32.439Z,10.388888888888914
2022-09-23T05:16:32.163Z,10.388888888888914
2022-09-23T05:17:32.450Z,10.388888888888914
2022-09-23T05:18:32.435Z,10.388888888888914
2022-09-23T05:19:32.352Z,10.388888888888914
2022-09-23T05:20:32.030Z,10.388888888888914
2022-09-23T05:21:32.434Z,10.388888888888914
2022-09-23T05:22:32.441Z,10.388888888888914
2022-09-23T05:23:32.432Z,10.388888888888914
2022-09-23T05:24:32.049Z,10.388888888888914
2022-09-23T05:25:36.333Z,10.388888888888914
2022-09-23T05:26:32.476Z,10.500000000000057
2022-09-23T05:27:32.452Z,10.500000000000057
2022-09-23T05:28:31.994Z,10.500000000000057
2022-09-23T05:29:32.441Z,10.500000000000057
2022-09-23T05:30:32.405Z,10.500000000000057
2022-09-23T05:31:32.463Z,10.611111111111143
2022-09-23T05:32:32.020Z,10.611111111111143
2022-09-23T05:33:32.495Z,10.611111111111143
2022-09-23T05:34:32.413Z,10.611111111111143
2022-09-23T05:35:32.523Z,10.611111111111143
2022-09-23T05:36:36.910Z,10.611111111111143
2022-09-23T05:37:32.568Z,10.611111111111143
2022-09-23T05:38:32.444Z,10.611111111111143
2022-09-23T05:39:32.434Z,10.611111111111143
2022-09-23T05:40:32.057Z,10.722222222222285
2022-09-23T05:41:32.453Z,10.722222222222285
2022-09-23T05:42:32.401Z,10.722222222222285
2022-09-23T05:43:32.560Z,10.722222222222285
2022-09-23T05:44:31.984Z,10.722222222222285
2022-09-23T05:45:32.558Z,10.777777777777828
2022-09-23T05:46:32.471Z,10.777777777777828
2022-09-23T05:47:32.442Z,10.777777777777828
2022-09-23T05:48:32.072Z,10.777777777777828
2022-09-23T05:49:55.201Z,10.777777777777828
2022-09-23T05:50:32.472Z,10.777777777777828
2022-09-23T05:51:32.421Z,10.888888888888971
2022-09-23T05:52:31.999Z,10.888888888888971
2022-09-23T05:53:32.421Z,10.888888888888971
2022-09-23T05:54:32.449Z,10.888888888888971
2022-09-23T05:55:32.402Z,10.888888888888971
2022-09-23T05:56:32.087Z,10.888888888888971
2022-09-23T05:57:32.453Z,10.888888888888971
2022-09-23T05:58:32.435Z,11.000000000000057
2022-09-23T05:59:32.434Z,11.000000000000057
2022-09-23T06:00:32.181Z,11.000000000000057
2022-09-23T06:01:32.538Z,11.000000000000057
2022-09-23T06:02:32.471Z,11.000000000000057
2022-09-23T06:03:32.539Z,11.000000000000057
2022-09-23T06:04:31.976Z,11.000000000000057
2022-09-23T06:05:32.455Z,11.000000000000057
2022-09-23T06:06:32.562Z,11.000000000000057
2022-09-23T06:07:32.414Z,11.000000000000057
2022-09-23T06:08:32.009Z,11.000000000000057
2022-09-23T06:09:36.384Z,11.111111111111143
2022-09-23T06:10:32.463Z,11.111111111111143
2022-09-23T06:11:32.397Z,11.111111111111143
2022-09-23T06:12:31.932Z,11.111111111111143
2022-09-23T06:13:32.428Z,11.111111111111143
2022-09-23T06:14:32.500Z,11.111111111111143
2022-09-23T06:15:32.429Z,11.111111111111143
2022-09-23T06:16:32.031Z,11.111111111111143
2022-09-23T06:17:32.563Z,11.111111111111143
2022-09-23T06:18:32.433Z,11.111111111111143
2022-09-23T06:19:32.426Z,11.111111111111143
2022-09-23T06:20:31.976Z,11.111111111111143
2022-09-23T06:21:32.475Z,11.111111111111143
2022-09-23T06:22:34.852Z,11.111111111111143
2022-09-23T06:23:32.500Z,11.222222222222285
2022-09-23T06:24:32.006Z,11.222222222222285
2022-09-23T06:25:32.419Z,11.222222222222285
2022-09-23T06:26:32.424Z,11.222222222222285
2022-09-23T06:27:32.408Z,11.222222222222285
2022-09-23T06:28:31.955Z,11.277777777777828
2022-09-23T06:29:32.461Z,11.277777777777828
2022-09-23T06:30:32.427Z,11.277777777777828
2022-09-23T06:31:32.553Z,11.277777777777828
2022-09-23T06:32:31.912Z,11.277777777777828
2022-09-23T06:33:36.693Z,11.277777777777828
2022-09-23T06:34:39.276Z,11.277777777777828
2022-09-23T06:35:32.395Z,11.277777777777828
2022-09-23T06:36:42.371Z,11.277777777777828
2022-09-23T06:37:32.397Z,11.388888888888971
2022-09-23T06:38:32.434Z,11.388888888888971
2022-09-23T06:39:32.447Z,11.388888888888971
2022-09-23T06:40:32.012Z,11.388888888888971
2022-09-23T06:41:32.423Z,11.388888888888971
2022-09-23T06:42:32.402Z,11.388888888888971
2022-09-23T06:43:32.403Z,11.500000000000057
2022-09-23T06:44:31.923Z,11.500000000000057
2022-09-23T06:45:32.424Z,11.500000000000057
2022-09-23T06:46:32.589Z,11.6111111111112
2022-09-23T06:47:32.411Z,11.6111111111112
2022-09-23T06:48:31.917Z,11.6111111111112
2022-09-23T06:49:32.398Z,11.6111111111112
2022-09-23T06:50:32.419Z,11.6111111111112
2022-09-23T06:51:32.411Z,11.6111111111112
2022-09-23T06:52:31.932Z,11.6111111111112
2022-09-23T06:53:32.484Z,11.6111111111112
2022-09-23T06:54:32.407Z,11.6111111111112
2022-09-23T06:55:32.429Z,11.6111111111112
2022-09-23T06:56:36.294Z,11.6111111111112
2022-09-23T06:57:32.396Z,11.6111111111112
2022-09-23T06:58:32.451Z,11.722222222222229
2022-09-23T06:59:32.408Z,11.722222222222229
2022-09-23T07:00:31.895Z,11.722222222222229
2022-09-23T07:01:32.553Z,11.722222222222229
2022-09-23T07:02:32.543Z,11.722222222222229
2022-09-23T07:03:32.396Z,11.722222222222229
2022-09-23T07:04:31.869Z,11.722222222222229
2022-09-23T07:05:32.456Z,11.777777777777828
2022-09-23T07:06:32.536Z,11.777777777777828
2022-09-23T07:07:32.408Z,11.777777777777828
2022-09-23T07:08:31.934Z,11.777777777777828
2022-09-23T07:09:32.429Z,11.777777777777828
2022-09-23T07:10:32.419Z,11.888888888888971
2022-09-23T07:11:32.378Z,11.888888888888971
2022-09-23T07:12:31.895Z,11.888888888888971
2022-09-23T07:13:32.486Z,11.888888888888971
2022-09-23T07:14:32.420Z,11.888888888888971
2022-09-23T07:15:32.487Z,11.888888888888971
2022-09-23T07:16:31.971Z,12
2022-09-23T07:17:32.427Z,12
2022-09-23T07:18:36.495Z,12
2022-09-23T07:19:32.380Z,12.111111111111143
2022-09-23T07:20:31.871Z,12.111111111111143
2022-09-23T07:21:32.407Z,12.111111111111143
2022-09-23T07:22:32.430Z,12
2022-09-23T07:23:32.402Z,12
2022-09-23T07:24:31.896Z,12.111111111111143
2022-09-23T07:25:32.404Z,12.111111111111143
2022-09-23T07:26:32.419Z,12.111111111111143
2022-09-23T07:27:32.376Z,12.222222222222285
2022-09-23T07:28:31.877Z,12.222222222222285
2022-09-23T07:29:39.994Z,12.222222222222285
2022-09-23T07:30:32.420Z,12.222222222222285
2022-09-23T07:31:38.748Z,12.222222222222285
2022-09-23T07:32:40.812Z,12.277777777777828
2022-09-23T07:33:33.305Z,12.277777777777828
2022-09-23T07:34:32.383Z,12.277777777777828
2022-09-23T07:35:32.414Z,12.388888888888914
2022-09-23T07:36:31.818Z,12.277777777777828
2022-09-23T07:37:32.409Z,12.277777777777828
2022-09-23T07:38:32.404Z,12.388888888888914
2022-09-23T07:39:32.479Z,12.388888888888914
2022-09-23T07:40:31.908Z,12.388888888888914
2022-09-23T07:41:32.417Z,12.388888888888914
2022-09-23T07:42:32.386Z,12.388888888888914
2022-09-23T07:43:32.553Z,12.388888888888914
2022-09-23T07:44:31.842Z,12.388888888888914
2022-09-23T07:45:32.467Z,12.388888888888914
2022-09-23T07:46:32.487Z,12.388888888888914
2022-09-23T07:47:32.414Z,12.388888888888914
2022-09-23T07:48:34.307Z,12.388888888888914
2022-09-23T07:49:32.433Z,12.388888888888914
2022-09-23T07:50:32.415Z,12.500000000000057
2022-09-23T07:51:35.953Z,12.500000000000057
2022-09-23T07:52:31.837Z,12.611111111111143
2022-09-23T07:53:32.536Z,12.611111111111143
2022-09-23T07:54:32.402Z,12.500000000000057
2022-09-23T07:55:32.551Z,12.611111111111143
2022-09-23T07:56:31.839Z,12.611111111111143
2022-09-23T07:57:32.422Z,12.611111111111143
2022-09-23T07:58:32.433Z,12.611111111111143
2022-09-23T07:59:32.434Z,12.611111111111143
2022-09-23T08:00:31.849Z,12.611111111111143
2022-09-23T08:01:32.539Z,12.722222222222285
2022-09-23T08:02:32.429Z,12.722222222222285
2022-09-23T08:03:32.400Z,12.722222222222285
2022-09-23T08:04:31.814Z,12.722222222222285
2022-09-23T08:05:32.437Z,12.777777777777828
2022-09-23T08:06:32.393Z,12.777777777777828
2022-09-23T08:07:32.390Z,12.777777777777828
2022-09-23T08:08:31.799Z,12.777777777777828
2022-09-23T08:09:32.429Z,12.777777777777828
2022-09-23T08:10:32.516Z,12.777777777777828
2022-09-23T08:11:32.570Z,12.888888888888914
2022-09-23T08:12:31.807Z,12.888888888888914
2022-09-23T08:13:32.417Z,12.888888888888914
2022-09-23T08:14:32.402Z,13.000000000000057
2022-09-23T08:15:32.449Z,13.000000000000057
2022-09-23T08:16:31.814Z,13.000000000000057
2022-09-23T08:17:32.414Z,13.000000000000057
2022-09-23T08:18:32.377Z,13.000000000000057
2022-09-23T08:19:32.407Z,12.888888888888914
2022-09-23T08:20:31.770Z,12.888888888888914
2022-09-23T08:21:32.425Z,12.888888888888914
2022-09-23T08:22:32.551Z,13.000000000000057
2022-09-23T08:23:32.416Z,13.000000000000057
2022-09-23T08:24:31.770Z,13.000000000000057
2022-09-23T08:25:34.140Z,13.111111111111143
2022-09-23T08:26:32.401Z,13.111111111111143
2022-09-23T08:27:32.398Z,13.222222222222285
2022-09-23T08:28:31.789Z,13.222222222222285
2022-09-23T08:29:32.430Z,13.222222222222285
2022-09-23T08:30:32.503Z,13.222222222222285
2022-09-23T08:31:32.416Z,13.222222222222285
2022-09-23T08:32:31.785Z,13.222222222222285
2022-09-23T08:33:32.386Z,13.222222222222285
2022-09-23T08:34:32.400Z,13.277777777777828
2022-09-23T08:35:32.415Z,13.277777777777828
2022-09-23T08:36:31.789Z,13.277777777777828
2022-09-23T08:37:32.406Z,13.277777777777828
2022-09-23T08:38:32.398Z,13.388888888888914
2022-09-23T08:39:32.411Z,13.388888888888914
2022-09-23T08:40:31.795Z,13.500000000000057
2022-09-23T08:41:32.424Z,13.500000000000057
2022-09-23T08:42:32.445Z,13.500000000000057
2022-09-23T08:43:32.418Z,13.500000000000057
2022-09-23T08:44:31.761Z,13.500000000000057
2022-09-23T08:45:32.540Z,13.500000000000057
2022-09-23T08:46:32.412Z,13.500000000000057
2022-09-23T08:47:32.412Z,13.500000000000057
2022-09-23T08:48:31.770Z,13.6111111111112
2022-09-23T08:49:32.401Z,13.6111111111112
2022-09-23T08:50:32.459Z,13.6111111111112
2022-09-23T08:51:32.389Z,13.6111111111112
2022-09-23T08:52:31.725Z,13.6111111111112
2022-09-23T08:53:32.399Z,13.6111111111112
2022-09-23T08:54:32.405Z,13.6111111111112
2022-09-23T08:55:32.382Z,13.6111111111112
2022-09-23T08:56:31.737Z,13.722222222222285
2022-09-23T08:57:32.414Z,13.722222222222285
2022-09-23T08:58:32.392Z,13.722222222222285
2022-09-23T08:59:32.396Z,13.777777777777828
2022-09-23T09:00:31.789Z,13.888888888888971
2022-09-23T09:01:32.523Z,14.000000000000057
2022-09-23T09:02:32.463Z,14.1111111111112
2022-09-23T09:03:32.407Z,14.222222222222229
2022-09-23T09:04:31.750Z,14.277777777777828
2022-09-23T09:05:32.404Z,14.388888888888971
2022-09-23T09:06:32.412Z,14.5
2022-09-23T09:07:36.700Z,14.5